sensor_id;sensor_type;location;lat;lon;timestamp;P1;durP1;ratioP1;P2;durP2;ratioP2
73219;SDS011;61434;43.538;-5.688;2022-12-18T00:02:04;23.20;;;12.50;;
73219;SDS011;61434;43.538;-5.688;2022-12-18T00:04:29;25.38;;;11.15;;
73219;SDS011;61434;43.538;-5.688;2022-12-18T00:06:55;19.30;;;10.63;;
73219;SDS011;61434;43.538;-5.688;2022-12-18T00:09:20;18.97;;;10.30;;
73219;SDS011;61434;43.538;-5.688;2022-12-18T00:11:46;22.30;;;11.18;;
73219;SDS011;61434;43.538;-5.688;2022-12-18T00:14:12;19.97;;;10.43;;
73219;SDS011;61434;43.538;-5.688;2022-12-18T00:16:38;22.75;;;10.05;;
73219;SDS011;61434;43.538;-5.688;2022-12-18T00:19:04;20.03;;;9.80;;
73219;SDS011;61434;43.538;-5.688;2022-12-18T00:21:31;23.83;;;14.23;;
73219;SDS011;61434;43.538;-5.688;2022-12-18T00:23:57;25.63;;;15.30;;
73219;SDS011;61434;43.538;-5.688;2022-12-18T00:26:25;23.58;;;12.95;;
73219;SDS011;61434;43.538;-5.688;2022-12-18T00:28:53;21.08;;;11.23;;
73219;SDS011;61434;43.538;-5.688;2022-12-18T00:31:20;20.30;;;10.23;;
73219;SDS011;61434;43.538;-5.688;2022-12-18T00:33:47;20.98;;;9.98;;
73219;SDS011;61434;43.538;-5.688;2022-12-18T00:36:14;18.85;;;9.70;;
73219;SDS011;61434;43.538;-5.688;2022-12-18T00:38:42;18.10;;;9.73;;
73219;SDS011;61434;43.538;-5.688;2022-12-18T00:41:10;19.63;;;9.60;;
73219;SDS011;61434;43.538;-5.688;2022-12-18T00:43:36;18.70;;;9.95;;
73219;SDS011;61434;43.538;-5.688;2022-12-18T00:46:03;24.85;;;10.38;;
73219;SDS011;61434;43.538;-5.688;2022-12-18T00:48:29;18.20;;;9.37;;
73219;SDS011;61434;43.538;-5.688;2022-12-18T00:50:55;18.92;;;9.65;;
73219;SDS011;61434;43.538;-5.688;2022-12-18T00:53:20;19.07;;;9.27;;
73219;SDS011;61434;43.538;-5.688;2022-12-18T00:55:46;18.95;;;9.60;;
73219;SDS011;61434;43.538;-5.688;2022-12-18T00:58:13;18.47;;;9.17;;
73219;SDS011;61434;43.538;-5.688;2022-12-18T01:00:41;18.60;;;9.57;;
73219;SDS011;61434;43.538;-5.688;2022-12-18T01:03:06;16.65;;;8.98;;
73219;SDS011;61434;43.538;-5.688;2022-12-18T01:05:32;16.67;;;9.37;;
73219;SDS011;61434;43.538;-5.688;2022-12-18T01:07:59;18.10;;;9.55;;
73219;SDS011;61434;43.538;-5.688;2022-12-18T01:10:24;17.02;;;8.85;;
73219;SDS011;61434;43.538;-5.688;2022-12-18T01:12:51;19.17;;;9.23;;
73219;SDS011;61434;43.538;-5.688;2022-12-18T01:15:16;20.30;;;8.90;;
73219;SDS011;61434;43.538;-5.688;2022-12-18T01:17:43;17.23;;;8.93;;
73219;SDS011;61434;43.538;-5.688;2022-12-18T01:20:09;16.27;;;8.57;;
73219;SDS011;61434;43.538;-5.688;2022-12-18T01:22:36;16.48;;;8.57;;
73219;SDS011;61434;43.538;-5.688;2022-12-18T01:25:02;26.97;;;12.90;;
73219;SDS011;61434;43.538;-5.688;2022-12-18T01:27:29;17.08;;;8.35;;
73219;SDS011;61434;43.538;-5.688;2022-12-18T01:29:54;17.17;;;8.27;;
73219;SDS011;61434;43.538;-5.688;2022-12-18T01:32:20;16.77;;;9.10;;
73219;SDS011;61434;43.538;-5.688;2022-12-18T01:34:47;20.25;;;8.73;;
73219;SDS011;61434;43.538;-5.688;2022-12-18T01:37:12;17.83;;;8.40;;
73219;SDS011;61434;43.538;-5.688;2022-12-18T01:39:38;17.17;;;8.32;;
73219;SDS011;61434;43.538;-5.688;2022-12-18T01:42:05;19.10;;;9.13;;
73219;SDS011;61434;43.538;-5.688;2022-12-18T01:47:46;14.80;;;8.20;;
73219;SDS011;61434;43.538;-5.688;2022-12-18T01:53:11;19.23;;;8.45;;
73219;SDS011;61434;43.538;-5.688;2022-12-18T01:55:45;15.47;;;8.47;;
73219;SDS011;61434;43.538;-5.688;2022-12-18T01:58:13;16.20;;;8.43;;
73219;SDS011;61434;43.538;-5.688;2022-12-18T02:00:39;14.82;;;8.40;;
73219;SDS011;61434;43.538;-5.688;2022-12-18T02:03:05;17.80;;;8.75;;
73219;SDS011;61434;43.538;-5.688;2022-12-18T02:08:20;15.65;;;9.57;;
73219;SDS011;61434;43.538;-5.688;2022-12-18T02:16:13;17.17;;;8.82;;
73219;SDS011;61434;43.538;-5.688;2022-12-18T02:18:50;15.57;;;8.93;;
73219;SDS011;61434;43.538;-5.688;2022-12-18T02:21:36;17.63;;;9.93;;
73219;SDS011;61434;43.538;-5.688;2022-12-18T02:24:18;15.18;;;8.13;;
73219;SDS011;61434;43.538;-5.688;2022-12-18T02:26:58;15.17;;;7.97;;
73219;SDS011;61434;43.538;-5.688;2022-12-18T02:29:31;14.07;;;7.00;;
73219;SDS011;61434;43.538;-5.688;2022-12-18T02:32:02;15.15;;;8.05;;
73219;SDS011;61434;43.538;-5.688;2022-12-18T02:34:31;15.05;;;6.65;;
73219;SDS011;61434;43.538;-5.688;2022-12-18T02:37:00;13.45;;;7.10;;
73219;SDS011;61434;43.538;-5.688;2022-12-18T02:39:30;13.70;;;6.80;;
73219;SDS011;61434;43.538;-5.688;2022-12-18T02:41:58;14.82;;;7.40;;
73219;SDS011;61434;43.538;-5.688;2022-12-18T02:44:27;15.07;;;7.63;;
73219;SDS011;61434;43.538;-5.688;2022-12-18T02:46:53;14.90;;;7.80;;
73219;SDS011;61434;43.538;-5.688;2022-12-18T02:51:55;14.98;;;7.60;;
73219;SDS011;61434;43.538;-5.688;2022-12-18T02:56:54;18.07;;;7.63;;
73219;SDS011;61434;43.538;-5.688;2022-12-18T02:59:56;15.95;;;8.13;;
73219;SDS011;61434;43.538;-5.688;2022-12-18T03:02:29;16.33;;;8.30;;
73219;SDS011;61434;43.538;-5.688;2022-12-18T03:07:38;18.02;;;9.13;;
73219;SDS011;61434;43.538;-5.688;2022-12-18T03:10:12;19.52;;;9.75;;
73219;SDS011;61434;43.538;-5.688;2022-12-18T03:12:42;14.68;;;9.52;;
73219;SDS011;61434;43.538;-5.688;2022-12-18T03:17:50;16.02;;;10.35;;
73219;SDS011;61434;43.538;-5.688;2022-12-18T03:20:21;16.75;;;10.25;;
73219;SDS011;61434;43.538;-5.688;2022-12-18T03:22:51;19.02;;;9.90;;
73219;SDS011;61434;43.538;-5.688;2022-12-18T03:25:22;18.77;;;10.50;;
73219;SDS011;61434;43.538;-5.688;2022-12-18T03:27:51;16.77;;;9.37;;
73219;SDS011;61434;43.538;-5.688;2022-12-18T03:30:22;16.40;;;8.90;;
73219;SDS011;61434;43.538;-5.688;2022-12-18T03:32:54;13.55;;;8.50;;
73219;SDS011;61434;43.538;-5.688;2022-12-18T03:35:29;13.77;;;8.07;;
73219;SDS011;61434;43.538;-5.688;2022-12-18T03:37:58;15.05;;;8.82;;
73219;SDS011;61434;43.538;-5.688;2022-12-18T03:40:26;12.70;;;7.23;;
73219;SDS011;61434;43.538;-5.688;2022-12-18T03:43:03;14.35;;;8.27;;
73219;SDS011;61434;43.538;-5.688;2022-12-18T03:45:45;13.32;;;8.52;;
73219;SDS011;61434;43.538;-5.688;2022-12-18T03:48:20;15.33;;;8.00;;
73219;SDS011;61434;43.538;-5.688;2022-12-18T03:50:53;12.75;;;6.18;;
73219;SDS011;61434;43.538;-5.688;2022-12-18T03:55:51;12.10;;;5.53;;
73219;SDS011;61434;43.538;-5.688;2022-12-18T03:58:19;11.20;;;5.60;;
73219;SDS011;61434;43.538;-5.688;2022-12-18T04:00:48;11.00;;;5.70;;
73219;SDS011;61434;43.538;-5.688;2022-12-18T04:03:17;12.23;;;5.70;;
73219;SDS011;61434;43.538;-5.688;2022-12-18T04:05:44;12.93;;;5.63;;
73219;SDS011;61434;43.538;-5.688;2022-12-18T04:08:13;12.93;;;5.68;;
73219;SDS011;61434;43.538;-5.688;2022-12-18T04:10:39;18.33;;;7.57;;
73219;SDS011;61434;43.538;-5.688;2022-12-18T04:13:04;12.02;;;7.50;;
73219;SDS011;61434;43.538;-5.688;2022-12-18T04:15:31;14.97;;;8.50;;
73219;SDS011;61434;43.538;-5.688;2022-12-18T04:17:59;12.35;;;6.07;;
73219;SDS011;61434;43.538;-5.688;2022-12-18T04:20:24;12.40;;;6.60;;
73219;SDS011;61434;43.538;-5.688;2022-12-18T04:22:50;12.03;;;5.30;;
73219;SDS011;61434;43.538;-5.688;2022-12-18T04:25:16;11.63;;;5.25;;
73219;SDS011;61434;43.538;-5.688;2022-12-18T04:27:41;13.17;;;5.17;;
73219;SDS011;61434;43.538;-5.688;2022-12-18T04:30:07;11.95;;;4.80;;
73219;SDS011;61434;43.538;-5.688;2022-12-18T04:32:34;10.80;;;4.70;;
73219;SDS011;61434;43.538;-5.688;2022-12-18T04:34:59;11.40;;;5.00;;
73219;SDS011;61434;43.538;-5.688;2022-12-18T04:37:25;11.60;;;5.17;;
73219;SDS011;61434;43.538;-5.688;2022-12-18T04:39:50;11.60;;;5.10;;
73219;SDS011;61434;43.538;-5.688;2022-12-18T04:42:16;11.23;;;4.90;;
73219;SDS011;61434;43.538;-5.688;2022-12-18T04:44:41;13.93;;;4.83;;
73219;SDS011;61434;43.538;-5.688;2022-12-18T04:47:06;13.65;;;4.85;;
73219;SDS011;61434;43.538;-5.688;2022-12-18T04:49:32;12.40;;;4.60;;
73219;SDS011;61434;43.538;-5.688;2022-12-18T04:51:58;11.83;;;4.80;;
73219;SDS011;61434;43.538;-5.688;2022-12-18T04:54:23;12.82;;;5.10;;
73219;SDS011;61434;43.538;-5.688;2022-12-18T04:56:49;11.60;;;5.00;;
73219;SDS011;61434;43.538;-5.688;2022-12-18T04:59:14;11.03;;;4.40;;
73219;SDS011;61434;43.538;-5.688;2022-12-18T05:01:40;13.60;;;4.77;;
73219;SDS011;61434;43.538;-5.688;2022-12-18T05:04:05;12.13;;;4.75;;
73219;SDS011;61434;43.538;-5.688;2022-12-18T05:06:31;10.10;;;4.60;;
73219;SDS011;61434;43.538;-5.688;2022-12-18T05:08:56;9.60;;;4.50;;
73219;SDS011;61434;43.538;-5.688;2022-12-18T05:11:22;10.45;;;5.18;;
73219;SDS011;61434;43.538;-5.688;2022-12-18T05:13:47;12.13;;;5.47;;
73219;SDS011;61434;43.538;-5.688;2022-12-18T05:16:13;10.23;;;4.57;;
73219;SDS011;61434;43.538;-5.688;2022-12-18T05:18:39;10.05;;;4.45;;
73219;SDS011;61434;43.538;-5.688;2022-12-18T05:21:05;8.77;;;4.30;;
73219;SDS011;61434;43.538;-5.688;2022-12-18T05:23:31;9.90;;;5.40;;
73219;SDS011;61434;43.538;-5.688;2022-12-18T05:26:02;13.27;;;6.88;;
73219;SDS011;61434;43.538;-5.688;2022-12-18T05:28:30;15.30;;;7.75;;
73219;SDS011;61434;43.538;-5.688;2022-12-18T05:30:58;13.48;;;7.72;;
73219;SDS011;61434;43.538;-5.688;2022-12-18T05:33:25;11.85;;;6.82;;
73219;SDS011;61434;43.538;-5.688;2022-12-18T05:35:56;11.70;;;6.77;;
73219;SDS011;61434;43.538;-5.688;2022-12-18T05:38:23;12.10;;;5.95;;
73219;SDS011;61434;43.538;-5.688;2022-12-18T05:40:50;11.82;;;5.93;;
73219;SDS011;61434;43.538;-5.688;2022-12-18T05:43:17;14.25;;;6.30;;
73219;SDS011;61434;43.538;-5.688;2022-12-18T05:45:44;11.18;;;6.40;;
73219;SDS011;61434;43.538;-5.688;2022-12-18T05:48:09;12.47;;;5.80;;
73219;SDS011;61434;43.538;-5.688;2022-12-18T05:50:39;13.65;;;5.25;;
73219;SDS011;61434;43.538;-5.688;2022-12-18T05:53:06;12.85;;;5.22;;
73219;SDS011;61434;43.538;-5.688;2022-12-18T05:55:35;9.57;;;4.53;;
73219;SDS011;61434;43.538;-5.688;2022-12-18T05:58:02;11.70;;;4.57;;
73219;SDS011;61434;43.538;-5.688;2022-12-18T06:00:29;8.25;;;4.22;;
73219;SDS011;61434;43.538;-5.688;2022-12-18T06:02:55;10.30;;;4.80;;
73219;SDS011;61434;43.538;-5.688;2022-12-18T06:05:20;10.20;;;4.83;;
73219;SDS011;61434;43.538;-5.688;2022-12-18T06:07:46;11.37;;;4.77;;
73219;SDS011;61434;43.538;-5.688;2022-12-18T06:10:11;8.85;;;4.47;;
73219;SDS011;61434;43.538;-5.688;2022-12-18T06:12:37;9.33;;;5.00;;
73219;SDS011;61434;43.538;-5.688;2022-12-18T06:15:03;9.52;;;4.60;;
73219;SDS011;61434;43.538;-5.688;2022-12-18T06:17:32;11.00;;;5.27;;
73219;SDS011;61434;43.538;-5.688;2022-12-18T06:19:58;9.90;;;5.22;;
73219;SDS011;61434;43.538;-5.688;2022-12-18T06:22:24;10.20;;;5.37;;
73219;SDS011;61434;43.538;-5.688;2022-12-18T06:24:49;13.30;;;6.28;;
73219;SDS011;61434;43.538;-5.688;2022-12-18T06:27:15;13.80;;;6.87;;
73219;SDS011;61434;43.538;-5.688;2022-12-18T06:29:41;12.53;;;6.13;;
73219;SDS011;61434;43.538;-5.688;2022-12-18T06:32:06;9.48;;;4.90;;
73219;SDS011;61434;43.538;-5.688;2022-12-18T06:34:32;9.33;;;4.47;;
73219;SDS011;61434;43.538;-5.688;2022-12-18T06:36:58;10.85;;;4.38;;
73219;SDS011;61434;43.538;-5.688;2022-12-18T06:39:24;10.85;;;4.38;;
73219;SDS011;61434;43.538;-5.688;2022-12-18T06:41:49;9.00;;;4.50;;
73219;SDS011;61434;43.538;-5.688;2022-12-18T06:44:15;8.53;;;4.10;;
73219;SDS011;61434;43.538;-5.688;2022-12-18T06:46:40;9.90;;;4.10;;
73219;SDS011;61434;43.538;-5.688;2022-12-18T06:49:06;7.17;;;3.80;;
73219;SDS011;61434;43.538;-5.688;2022-12-18T06:51:31;7.50;;;3.70;;
73219;SDS011;61434;43.538;-5.688;2022-12-18T06:53:57;9.82;;;3.90;;
73219;SDS011;61434;43.538;-5.688;2022-12-18T06:56:22;8.30;;;3.97;;
73219;SDS011;61434;43.538;-5.688;2022-12-18T06:58:48;7.77;;;3.67;;
73219;SDS011;61434;43.538;-5.688;2022-12-18T07:01:13;7.78;;;3.95;;
73219;SDS011;61434;43.538;-5.688;2022-12-18T07:03:40;7.97;;;3.50;;
73219;SDS011;61434;43.538;-5.688;2022-12-18T07:06:06;10.00;;;4.25;;
73219;SDS011;61434;43.538;-5.688;2022-12-18T07:08:32;9.40;;;4.30;;
73219;SDS011;61434;43.538;-5.688;2022-12-18T07:10:57;8.63;;;3.58;;
73219;SDS011;61434;43.538;-5.688;2022-12-18T07:13:23;8.27;;;3.83;;
73219;SDS011;61434;43.538;-5.688;2022-12-18T07:15:49;8.37;;;3.63;;
73219;SDS011;61434;43.538;-5.688;2022-12-18T07:18:14;7.28;;;4.10;;
73219;SDS011;61434;43.538;-5.688;2022-12-18T07:20:40;8.15;;;3.90;;
73219;SDS011;61434;43.538;-5.688;2022-12-18T07:23:05;9.60;;;5.03;;
73219;SDS011;61434;43.538;-5.688;2022-12-18T07:25:35;9.33;;;5.50;;
73219;SDS011;61434;43.538;-5.688;2022-12-18T07:28:01;10.55;;;5.68;;
73219;SDS011;61434;43.538;-5.688;2022-12-18T07:30:26;9.75;;;5.65;;
73219;SDS011;61434;43.538;-5.688;2022-12-18T07:32:52;10.73;;;5.87;;
73219;SDS011;61434;43.538;-5.688;2022-12-18T07:35:17;10.90;;;5.70;;
73219;SDS011;61434;43.538;-5.688;2022-12-18T07:37:43;13.00;;;5.50;;
73219;SDS011;61434;43.538;-5.688;2022-12-18T07:40:09;11.67;;;5.93;;
73219;SDS011;61434;43.538;-5.688;2022-12-18T07:42:35;14.10;;;6.20;;
73219;SDS011;61434;43.538;-5.688;2022-12-18T07:45:02;12.10;;;6.25;;
73219;SDS011;61434;43.538;-5.688;2022-12-18T07:47:28;12.35;;;6.47;;
73219;SDS011;61434;43.538;-5.688;2022-12-18T07:49:54;12.50;;;5.87;;
73219;SDS011;61434;43.538;-5.688;2022-12-18T07:52:20;17.10;;;7.65;;
73219;SDS011;61434;43.538;-5.688;2022-12-18T07:54:46;15.00;;;8.73;;
73219;SDS011;61434;43.538;-5.688;2022-12-18T07:57:14;16.85;;;9.80;;
73219;SDS011;61434;43.538;-5.688;2022-12-18T07:59:39;17.20;;;9.45;;
73219;SDS011;61434;43.538;-5.688;2022-12-18T08:02:05;16.87;;;9.47;;
73219;SDS011;61434;43.538;-5.688;2022-12-18T08:04:30;12.13;;;6.35;;
73219;SDS011;61434;43.538;-5.688;2022-12-18T08:06:56;12.57;;;5.47;;
73219;SDS011;61434;43.538;-5.688;2022-12-18T08:09:21;10.17;;;5.10;;
73219;SDS011;61434;43.538;-5.688;2022-12-18T08:11:47;10.00;;;4.67;;
73219;SDS011;61434;43.538;-5.688;2022-12-18T08:14:12;8.23;;;3.90;;
73219;SDS011;61434;43.538;-5.688;2022-12-18T08:16:39;13.48;;;4.45;;
73219;SDS011;61434;43.538;-5.688;2022-12-18T08:19:05;8.67;;;4.60;;
73219;SDS011;61434;43.538;-5.688;2022-12-18T08:21:30;9.60;;;4.30;;
73219;SDS011;61434;43.538;-5.688;2022-12-18T08:23:59;8.77;;;4.67;;
73219;SDS011;61434;43.538;-5.688;2022-12-18T08:26:27;11.30;;;4.47;;
73219;SDS011;61434;43.538;-5.688;2022-12-18T08:28:54;10.00;;;4.32;;
73219;SDS011;61434;43.538;-5.688;2022-12-18T08:31:21;10.18;;;4.38;;
73219;SDS011;61434;43.538;-5.688;2022-12-18T08:33:50;9.25;;;4.47;;
73219;SDS011;61434;43.538;-5.688;2022-12-18T08:36:17;8.67;;;4.37;;
73219;SDS011;61434;43.538;-5.688;2022-12-18T08:38:44;8.60;;;4.70;;
73219;SDS011;61434;43.538;-5.688;2022-12-18T08:41:11;11.35;;;5.03;;
73219;SDS011;61434;43.538;-5.688;2022-12-18T08:43:38;9.95;;;5.00;;
73219;SDS011;61434;43.538;-5.688;2022-12-18T08:46:24;9.10;;;5.10;;
73219;SDS011;61434;43.538;-5.688;2022-12-18T08:48:51;9.93;;;4.80;;
73219;SDS011;61434;43.538;-5.688;2022-12-18T08:51:17;9.07;;;4.88;;
73219;SDS011;61434;43.538;-5.688;2022-12-18T08:53:43;9.65;;;5.10;;
73219;SDS011;61434;43.538;-5.688;2022-12-18T08:56:09;9.70;;;4.50;;
73219;SDS011;61434;43.538;-5.688;2022-12-18T08:58:35;10.85;;;4.70;;
73219;SDS011;61434;43.538;-5.688;2022-12-18T09:01:01;11.97;;;5.40;;
73219;SDS011;61434;43.538;-5.688;2022-12-18T09:03:31;10.57;;;5.17;;
73219;SDS011;61434;43.538;-5.688;2022-12-18T09:05:57;10.73;;;5.22;;
73219;SDS011;61434;43.538;-5.688;2022-12-18T09:08:23;9.57;;;5.30;;
73219;SDS011;61434;43.538;-5.688;2022-12-18T09:10:49;10.93;;;6.60;;
73219;SDS011;61434;43.538;-5.688;2022-12-18T09:13:15;11.90;;;6.70;;
73219;SDS011;61434;43.538;-5.688;2022-12-18T09:15:42;12.88;;;6.90;;
73219;SDS011;61434;43.538;-5.688;2022-12-18T09:18:10;13.43;;;7.17;;
73219;SDS011;61434;43.538;-5.688;2022-12-18T09:20:36;12.77;;;7.00;;
73219;SDS011;61434;43.538;-5.688;2022-12-18T09:23:02;14.32;;;7.38;;
73219;SDS011;61434;43.538;-5.688;2022-12-18T09:25:29;12.98;;;7.15;;
73219;SDS011;61434;43.538;-5.688;2022-12-18T09:28:05;13.35;;;8.30;;
73219;SDS011;61434;43.538;-5.688;2022-12-18T09:30:36;16.57;;;9.53;;
73219;SDS011;61434;43.538;-5.688;2022-12-18T09:33:06;15.45;;;9.93;;
73219;SDS011;61434;43.538;-5.688;2022-12-18T09:35:32;19.02;;;12.65;;
73219;SDS011;61434;43.538;-5.688;2022-12-18T09:37:57;19.65;;;13.15;;
73219;SDS011;61434;43.538;-5.688;2022-12-18T09:40:23;22.13;;;15.73;;
73219;SDS011;61434;43.538;-5.688;2022-12-18T09:42:54;21.48;;;14.85;;
73219;SDS011;61434;43.538;-5.688;2022-12-18T09:45:22;19.40;;;13.23;;
73219;SDS011;61434;43.538;-5.688;2022-12-18T09:47:49;21.63;;;14.27;;
73219;SDS011;61434;43.538;-5.688;2022-12-18T09:50:24;18.67;;;14.35;;
73219;SDS011;61434;43.538;-5.688;2022-12-18T09:52:56;18.33;;;12.63;;
73219;SDS011;61434;43.538;-5.688;2022-12-18T09:55:35;15.48;;;10.55;;
73219;SDS011;61434;43.538;-5.688;2022-12-18T10:00:55;14.77;;;9.13;;
73219;SDS011;61434;43.538;-5.688;2022-12-18T10:03:21;12.35;;;8.40;;
73219;SDS011;61434;43.538;-5.688;2022-12-18T10:11:21;10.32;;;6.20;;
73219;SDS011;61434;43.538;-5.688;2022-12-18T10:14:02;9.30;;;4.95;;
73219;SDS011;61434;43.538;-5.688;2022-12-18T10:19:40;8.20;;;4.18;;
73219;SDS011;61434;43.538;-5.688;2022-12-18T10:27:42;11.68;;;5.63;;
73219;SDS011;61434;43.538;-5.688;2022-12-18T10:30:14;10.47;;;5.53;;
73219;SDS011;61434;43.538;-5.688;2022-12-18T10:32:42;12.25;;;5.70;;
73219;SDS011;61434;43.538;-5.688;2022-12-18T10:35:11;10.87;;;5.00;;
73219;SDS011;61434;43.538;-5.688;2022-12-18T10:43:22;9.38;;;4.75;;
73219;SDS011;61434;43.538;-5.688;2022-12-18T10:48:27;8.93;;;4.80;;
73219;SDS011;61434;43.538;-5.688;2022-12-18T10:50:53;9.82;;;4.97;;
73219;SDS011;61434;43.538;-5.688;2022-12-18T10:53:21;10.77;;;5.30;;
73219;SDS011;61434;43.538;-5.688;2022-12-18T10:55:48;10.05;;;5.20;;
73219;SDS011;61434;43.538;-5.688;2022-12-18T11:03:42;10.50;;;4.15;;
73219;SDS011;61434;43.538;-5.688;2022-12-18T11:06:13;9.20;;;4.03;;
73219;SDS011;61434;43.538;-5.688;2022-12-18T11:08:41;8.82;;;4.00;;
73219;SDS011;61434;43.538;-5.688;2022-12-18T11:11:15;9.43;;;4.53;;
73219;SDS011;61434;43.538;-5.688;2022-12-18T11:14:03;9.27;;;4.70;;
73219;SDS011;61434;43.538;-5.688;2022-12-18T11:16:33;12.13;;;4.70;;
73219;SDS011;61434;43.538;-5.688;2022-12-18T11:21:46;13.00;;;5.30;;
73219;SDS011;61434;43.538;-5.688;2022-12-18T11:24:17;9.93;;;5.30;;
73219;SDS011;61434;43.538;-5.688;2022-12-18T11:27:05;12.73;;;7.03;;
73219;SDS011;61434;43.538;-5.688;2022-12-18T11:29:42;14.68;;;6.97;;
73219;SDS011;61434;43.538;-5.688;2022-12-18T11:34:49;13.43;;;6.43;;
73219;SDS011;61434;43.538;-5.688;2022-12-18T11:37:19;10.05;;;5.30;;
73219;SDS011;61434;43.538;-5.688;2022-12-18T11:39:55;10.63;;;5.07;;
73219;SDS011;61434;43.538;-5.688;2022-12-18T11:45:25;9.60;;;4.13;;
73219;SDS011;61434;43.538;-5.688;2022-12-18T11:50:55;10.40;;;4.47;;
73219;SDS011;61434;43.538;-5.688;2022-12-18T11:53:23;11.20;;;4.70;;
73219;SDS011;61434;43.538;-5.688;2022-12-18T11:56:15;12.10;;;5.50;;
73219;SDS011;61434;43.538;-5.688;2022-12-18T11:58:48;10.82;;;5.18;;
73219;SDS011;61434;43.538;-5.688;2022-12-18T12:04:10;9.75;;;5.30;;
73219;SDS011;61434;43.538;-5.688;2022-12-18T12:10:01;13.40;;;5.32;;
73219;SDS011;61434;43.538;-5.688;2022-12-18T12:15:42;10.90;;;5.07;;
73219;SDS011;61434;43.538;-5.688;2022-12-18T12:21:28;12.43;;;5.13;;
73219;SDS011;61434;43.538;-5.688;2022-12-18T12:24:12;12.90;;;5.82;;
73219;SDS011;61434;43.538;-5.688;2022-12-18T12:35:09;11.67;;;5.77;;
73219;SDS011;61434;43.538;-5.688;2022-12-18T12:40:34;10.63;;;5.22;;
73219;SDS011;61434;43.538;-5.688;2022-12-18T12:43:12;9.73;;;5.13;;
73219;SDS011;61434;43.538;-5.688;2022-12-18T12:50:59;8.40;;;3.78;;
73219;SDS011;61434;43.538;-5.688;2022-12-18T12:53:29;8.18;;;3.35;;
73219;SDS011;61434;43.538;-5.688;2022-12-18T12:55:58;8.43;;;3.40;;
73219;SDS011;61434;43.538;-5.688;2022-12-18T12:58:40;8.05;;;3.20;;
73219;SDS011;61434;43.538;-5.688;2022-12-18T13:01:28;6.20;;;2.77;;
73219;SDS011;61434;43.538;-5.688;2022-12-18T13:09:30;8.13;;;3.40;;
73219;SDS011;61434;43.538;-5.688;2022-12-18T13:12:03;8.68;;;3.92;;
73219;SDS011;61434;43.538;-5.688;2022-12-18T13:14:48;8.40;;;3.57;;
73219;SDS011;61434;43.538;-5.688;2022-12-18T13:17:23;7.35;;;3.50;;
73219;SDS011;61434;43.538;-5.688;2022-12-18T13:22:43;7.87;;;2.90;;
73219;SDS011;61434;43.538;-5.688;2022-12-18T13:28:03;7.38;;;3.30;;
73219;SDS011;61434;43.538;-5.688;2022-12-18T13:33:51;8.13;;;3.28;;
73219;SDS011;61434;43.538;-5.688;2022-12-18T13:36:01;8.03;;;2.67;;
73219;SDS011;61434;43.538;-5.688;2022-12-18T13:38:35;7.18;;;2.75;;
73219;SDS011;61434;43.538;-5.688;2022-12-18T13:43:41;7.43;;;2.83;;
73219;SDS011;61434;43.538;-5.688;2022-12-18T13:46:19;7.55;;;2.90;;
73219;SDS011;61434;43.538;-5.688;2022-12-18T13:48:58;7.17;;;2.50;;
73219;SDS011;61434;43.538;-5.688;2022-12-18T13:51:26;6.05;;;2.20;;
73219;SDS011;61434;43.538;-5.688;2022-12-18T13:53:54;7.10;;;2.58;;
73219;SDS011;61434;43.538;-5.688;2022-12-18T13:56:32;7.93;;;3.10;;
73219;SDS011;61434;43.538;-5.688;2022-12-18T14:01:54;6.93;;;2.60;;
73219;SDS011;61434;43.538;-5.688;2022-12-18T14:09:31;6.97;;;3.30;;
73219;SDS011;61434;43.538;-5.688;2022-12-18T14:12:05;7.20;;;3.20;;
73219;SDS011;61434;43.538;-5.688;2022-12-18T14:14:50;7.20;;;3.20;;
73219;SDS011;61434;43.538;-5.688;2022-12-18T14:17:17;5.82;;;2.45;;
73219;SDS011;61434;43.538;-5.688;2022-12-18T14:19:43;6.03;;;2.58;;
73219;SDS011;61434;43.538;-5.688;2022-12-18T14:22:15;5.00;;;2.00;;
73219;SDS011;61434;43.538;-5.688;2022-12-18T14:24:43;4.77;;;1.90;;
73219;SDS011;61434;43.538;-5.688;2022-12-18T14:27:26;5.03;;;1.80;;
73219;SDS011;61434;43.538;-5.688;2022-12-18T14:29:52;4.35;;;1.50;;
73219;SDS011;61434;43.538;-5.688;2022-12-18T14:32:18;4.93;;;1.70;;
73219;SDS011;61434;43.538;-5.688;2022-12-18T14:34:51;4.63;;;1.55;;
73219;SDS011;61434;43.538;-5.688;2022-12-18T14:37:23;4.20;;;1.52;;
73219;SDS011;61434;43.538;-5.688;2022-12-18T14:39:57;6.40;;;2.00;;
73219;SDS011;61434;43.538;-5.688;2022-12-18T14:42:24;4.90;;;1.93;;
73219;SDS011;61434;43.538;-5.688;2022-12-18T14:47:56;4.30;;;1.50;;
73219;SDS011;61434;43.538;-5.688;2022-12-18T14:50:21;4.73;;;1.50;;
73219;SDS011;61434;43.538;-5.688;2022-12-18T14:52:47;5.53;;;1.60;;
73219;SDS011;61434;43.538;-5.688;2022-12-18T14:55:21;4.30;;;1.67;;
73219;SDS011;61434;43.538;-5.688;2022-12-18T14:57:50;4.93;;;1.60;;
73219;SDS011;61434;43.538;-5.688;2022-12-18T15:00:21;5.43;;;1.60;;
73219;SDS011;61434;43.538;-5.688;2022-12-18T15:02:55;5.30;;;2.00;;
73219;SDS011;61434;43.538;-5.688;2022-12-18T15:05:26;4.30;;;1.70;;
73219;SDS011;61434;43.538;-5.688;2022-12-18T15:07:56;4.97;;;1.90;;
73219;SDS011;61434;43.538;-5.688;2022-12-18T15:10:31;5.72;;;2.25;;
73219;SDS011;61434;43.538;-5.688;2022-12-18T15:18:09;6.00;;;2.10;;
73219;SDS011;61434;43.538;-5.688;2022-12-18T15:23:16;4.45;;;1.77;;
73219;SDS011;61434;43.538;-5.688;2022-12-18T15:25:47;4.32;;;1.60;;
73219;SDS011;61434;43.538;-5.688;2022-12-18T15:28:31;4.35;;;1.50;;
73219;SDS011;61434;43.538;-5.688;2022-12-18T15:33:40;4.55;;;1.48;;
73219;SDS011;61434;43.538;-5.688;2022-12-18T15:36:17;5.78;;;1.95;;
73219;SDS011;61434;43.538;-5.688;2022-12-18T15:38:46;4.50;;;1.90;;
73219;SDS011;61434;43.538;-5.688;2022-12-18T15:41:13;5.75;;;2.30;;
73219;SDS011;61434;43.538;-5.688;2022-12-18T15:43:40;5.68;;;2.47;;
73219;SDS011;61434;43.538;-5.688;2022-12-18T15:46:13;5.70;;;2.30;;
73219;SDS011;61434;43.538;-5.688;2022-12-18T15:48:40;6.17;;;2.30;;
73219;SDS011;61434;43.538;-5.688;2022-12-18T15:51:17;4.80;;;2.00;;
73219;SDS011;61434;43.538;-5.688;2022-12-18T15:53:45;5.95;;;2.10;;
73219;SDS011;61434;43.538;-5.688;2022-12-18T15:56:12;4.50;;;1.70;;
73219;SDS011;61434;43.538;-5.688;2022-12-18T15:58:58;4.88;;;1.90;;
73219;SDS011;61434;43.538;-5.688;2022-12-18T16:01:25;4.67;;;1.80;;
73219;SDS011;61434;43.538;-5.688;2022-12-18T16:03:52;5.05;;;1.92;;
73219;SDS011;61434;43.538;-5.688;2022-12-18T16:06:19;4.75;;;1.80;;
73219;SDS011;61434;43.538;-5.688;2022-12-18T16:08:45;4.40;;;1.70;;
73219;SDS011;61434;43.538;-5.688;2022-12-18T16:11:29;4.87;;;2.00;;
73219;SDS011;61434;43.538;-5.688;2022-12-18T16:14:19;4.68;;;1.63;;
73219;SDS011;61434;43.538;-5.688;2022-12-18T16:16:45;4.47;;;1.70;;
73219;SDS011;61434;43.538;-5.688;2022-12-18T16:19:12;5.70;;;2.20;;
73219;SDS011;61434;43.538;-5.688;2022-12-18T16:21:38;5.10;;;2.00;;
73219;SDS011;61434;43.538;-5.688;2022-12-18T16:24:03;5.60;;;2.00;;
73219;SDS011;61434;43.538;-5.688;2022-12-18T16:26:29;5.73;;;1.90;;
73219;SDS011;61434;43.538;-5.688;2022-12-18T16:28:56;7.10;;;1.90;;
73219;SDS011;61434;43.538;-5.688;2022-12-18T16:31:21;5.07;;;1.60;;
73219;SDS011;61434;43.538;-5.688;2022-12-18T16:33:47;4.90;;;2.00;;
73219;SDS011;61434;43.538;-5.688;2022-12-18T16:36:12;5.03;;;2.10;;
73219;SDS011;61434;43.538;-5.688;2022-12-18T16:38:38;4.90;;;1.80;;
73219;SDS011;61434;43.538;-5.688;2022-12-18T16:41:07;6.97;;;2.00;;
73219;SDS011;61434;43.538;-5.688;2022-12-18T16:43:58;4.70;;;1.70;;
73219;SDS011;61434;43.538;-5.688;2022-12-18T16:46:27;4.95;;;2.10;;
73219;SDS011;61434;43.538;-5.688;2022-12-18T16:48:52;10.03;;;2.33;;
73219;SDS011;61434;43.538;-5.688;2022-12-18T16:51:18;5.22;;;2.00;;
73219;SDS011;61434;43.538;-5.688;2022-12-18T16:53:43;5.10;;;1.80;;